createdAt,value
2022-08-03T00:00:21.094Z,0
2022-08-03T00:01:37.396Z,0
2022-08-03T00:02:53.699Z,0
2022-08-03T00:04:09.975Z,0
2022-08-03T00:05:26.277Z,0
2022-08-03T00:06:42.575Z,0
2022-08-03T00:07:58.866Z,0
2022-08-03T00:09:15.145Z,0
2022-08-03T00:10:30.458Z,0
2022-08-03T00:11:46.748Z,0
2022-08-03T00:13:03.040Z,0
2022-08-03T00:14:19.337Z,0
2022-08-03T00:15:35.634Z,0
2022-08-03T00:16:51.929Z,0
2022-08-03T00:18:08.208Z,0
2022-08-03T00:19:24.509Z,0
2022-08-03T00:20:40.798Z,0
2022-08-03T00:21:57.094Z,0
2022-08-03T00:23:13.374Z,0
2022-08-03T00:24:29.673Z,0
2022-08-03T00:25:45.969Z,0
2022-08-03T00:28:17.569Z,0
2022-08-03T00:29:33.857Z,0
2022-08-03T00:30:50.146Z,0
2022-08-03T00:32:06.450Z,0
2022-08-03T00:33:22.749Z,0
2022-08-03T00:34:39.022Z,0
2022-08-03T00:35:55.328Z,0
2022-08-03T00:37:11.620Z,0
2022-08-03T00:38:27.917Z,0
2022-08-03T00:39:44.202Z,0
2022-08-03T00:41:00.499Z,0
2022-08-03T00:42:16.784Z,0
2022-08-03T00:43:32.103Z,0
2022-08-03T00:44:48.382Z,0
2022-08-03T00:46:04.679Z,0
2022-08-03T00:47:20.980Z,0
2022-08-03T00:48:37.273Z,0
2022-08-03T00:49:53.551Z,0
2022-08-03T00:51:09.844Z,0
2022-08-03T00:52:26.136Z,0
2022-08-03T00:53:42.443Z,0
2022-08-03T00:54:58.734Z,0
2022-08-03T00:56:15.026Z,0
2022-08-03T00:57:31.313Z,0
2022-08-03T00:58:47.610Z,0
2022-08-03T01:00:02.908Z,0
2022-08-03T01:01:19.209Z,0
2022-08-03T01:02:35.504Z,0
2022-08-03T01:03:51.792Z,0
2022-08-03T01:05:08.075Z,0
2022-08-03T01:06:24.368Z,0
2022-08-03T01:07:40.673Z,0
2022-08-03T01:08:56.969Z,0
2022-08-03T01:10:13.258Z,0
2022-08-03T01:11:29.543Z,0
2022-08-03T01:12:45.846Z,0
2022-08-03T01:14:02.127Z,0
2022-08-03T01:15:18.427Z,0
2022-08-03T01:16:33.723Z,0
2022-08-03T01:17:50.024Z,0
2022-08-03T01:19:06.321Z,0
2022-08-03T01:20:22.619Z,0
2022-08-03T01:21:38.900Z,0
2022-08-03T01:22:55.199Z,0
2022-08-03T01:24:11.480Z,0
2022-08-03T01:25:27.783Z,0
2022-08-03T01:26:44.078Z,0
2022-08-03T01:28:00.357Z,0
2022-08-03T01:29:16.665Z,0
2022-08-03T01:30:32.946Z,0
2022-08-03T01:31:49.231Z,0
2022-08-03T01:33:04.560Z,0
2022-08-03T01:34:20.846Z,0
2022-08-03T01:35:37.133Z,0
2022-08-03T01:36:53.431Z,0
2022-08-03T01:38:09.714Z,0
2022-08-03T01:39:26.018Z,0
2022-08-03T01:40:42.309Z,0
2022-08-03T01:41:58.600Z,0
2022-08-03T01:43:14.889Z,0
2022-08-03T01:44:31.174Z,0
2022-08-03T01:45:47.473Z,0
2022-08-03T01:47:03.770Z,0
2022-08-03T01:48:20.067Z,0
2022-08-03T01:49:35.377Z,0
2022-08-03T01:50:51.657Z,0
2022-08-03T01:52:07.963Z,0
2022-08-03T01:53:24.249Z,0
2022-08-03T01:54:40.545Z,0
2022-08-03T01:55:56.825Z,0
2022-08-03T01:57:13.115Z,0
2022-08-03T01:58:29.412Z,0
2022-08-03T01:59:45.701Z,0
2022-08-03T02:01:02.006Z,0
2022-08-03T02:02:18.288Z,0
2022-08-03T02:03:34.589Z,0
2022-08-03T02:04:50.879Z,0
2022-08-03T02:06:06.192Z,0
2022-08-03T02:07:22.484Z,0
2022-08-03T02:08:38.763Z,0
2022-08-03T02:09:55.055Z,0
2022-08-03T02:11:11.357Z,0
2022-08-03T02:12:27.662Z,0
2022-08-03T02:13:42.970Z,0
2022-08-03T02:14:59.264Z,0
2022-08-03T02:16:15.549Z,0
2022-08-03T02:17:31.836Z,0
2022-08-03T02:18:48.135Z,0
2022-08-03T02:20:04.426Z,0
2022-08-03T02:21:20.718Z,0
2022-08-03T02:22:37.005Z,0
2022-08-03T02:23:53.295Z,0
2022-08-03T02:25:09.588Z,0
2022-08-03T02:26:25.894Z,0
2022-08-03T02:27:42.179Z,0
2022-08-03T02:28:58.466Z,0
2022-08-03T02:30:13.791Z,0
2022-08-03T02:31:30.076Z,0
2022-08-03T02:32:46.373Z,0
2022-08-03T02:34:02.649Z,0
2022-08-03T02:35:18.947Z,0
2022-08-03T02:36:35.234Z,0
2022-08-03T02:37:51.532Z,0
2022-08-03T02:39:07.819Z,0
2022-08-03T02:40:24.111Z,0
2022-08-03T02:42:56.710Z,0
2022-08-03T02:44:13.007Z,0
2022-08-03T02:45:29.297Z,0
2022-08-03T02:46:44.593Z,0
2022-08-03T02:48:00.884Z,0
2022-08-03T02:49:17.175Z,0
2022-08-03T02:50:33.477Z,0
2022-08-03T02:51:49.768Z,0
2022-08-03T02:53:06.064Z,0
2022-08-03T02:54:22.362Z,0
2022-08-03T02:55:38.649Z,0
2022-08-03T02:56:54.946Z,0
2022-08-03T02:58:11.240Z,0
2022-08-03T02:59:27.514Z,0
2022-08-03T03:00:43.823Z,0
2022-08-03T03:02:00.119Z,0
2022-08-03T03:03:15.412Z,0
2022-08-03T03:04:31.662Z,1
2022-08-03T03:05:47.918Z,1
2022-08-03T03:07:04.153Z,1
2022-08-03T03:08:20.389Z,1
2022-08-03T03:09:36.629Z,1
2022-08-03T03:10:52.860Z,2
2022-08-03T03:12:09.102Z,2
2022-08-03T03:13:25.337Z,1
2022-08-03T03:14:41.574Z,1
2022-08-03T03:15:57.812Z,4
2022-08-03T03:17:14.049Z,3
2022-08-03T03:18:30.288Z,9
2022-08-03T03:19:45.538Z,6
2022-08-03T03:21:01.782Z,11
2022-08-03T03:22:18.031Z,10
2022-08-03T03:23:34.252Z,9
2022-08-03T03:24:50.492Z,14
2022-08-03T03:26:06.740Z,16
2022-08-03T03:27:22.988Z,23
2022-08-03T03:28:39.209Z,23
2022-08-03T03:29:55.464Z,30
2022-08-03T03:31:11.697Z,34
2022-08-03T03:32:27.928Z,38
2022-08-03T03:33:44.168Z,47
2022-08-03T03:35:00.402Z,52
2022-08-03T03:36:15.674Z,57
2022-08-03T03:37:31.900Z,68
2022-08-03T03:38:48.148Z,77
2022-08-03T03:40:04.385Z,85
2022-08-03T03:41:20.613Z,95
2022-08-03T03:42:36.865Z,103
2022-08-03T03:43:53.092Z,112
2022-08-03T03:45:09.327Z,121
2022-08-03T03:46:25.569Z,136
2022-08-03T03:47:41.815Z,147
2022-08-03T03:48:58.050Z,162
2022-08-03T03:50:14.294Z,175
2022-08-03T03:51:30.517Z,184
2022-08-03T03:52:45.775Z,196
2022-08-03T03:54:02.028Z,214
2022-08-03T03:55:18.266Z,226
2022-08-03T03:56:34.504Z,238
2022-08-03T03:57:50.738Z,250
2022-08-03T03:59:06.981Z,261
2022-08-03T04:00:23.207Z,273
2022-08-03T04:01:39.458Z,284
2022-08-03T04:02:55.688Z,296
2022-08-03T04:04:11.922Z,307
2022-08-03T04:05:28.176Z,321
2022-08-03T04:06:44.400Z,330
2022-08-03T04:08:00.641Z,343
2022-08-03T04:09:15.901Z,353
2022-08-03T04:10:32.132Z,367
2022-08-03T04:11:48.373Z,376
2022-08-03T04:13:04.610Z,390
2022-08-03T04:14:20.851Z,399
2022-08-03T04:15:37.090Z,410
2022-08-03T04:16:53.329Z,419
2022-08-03T04:18:09.576Z,433
2022-08-03T04:19:25.818Z,443
2022-08-03T04:20:42.040Z,457
2022-08-03T04:21:58.286Z,465
2022-08-03T04:23:14.526Z,475
2022-08-03T04:24:30.755Z,485
2022-08-03T04:25:46.018Z,499
2022-08-03T04:27:02.247Z,508
2022-08-03T04:28:18.489Z,521
2022-08-03T04:29:34.727Z,528
2022-08-03T04:30:50.973Z,541
2022-08-03T04:32:07.218Z,553
2022-08-03T04:33:23.457Z,561
2022-08-03T04:34:39.690Z,567
2022-08-03T04:35:55.923Z,576
2022-08-03T04:37:12.159Z,583
2022-08-03T04:38:28.402Z,593
2022-08-03T04:39:44.643Z,602
2022-08-03T04:41:00.889Z,610
2022-08-03T04:42:16.136Z,618
2022-08-03T04:43:32.386Z,630
2022-08-03T04:44:48.605Z,641
2022-08-03T04:46:04.844Z,650
2022-08-03T04:47:21.090Z,664
2022-08-03T04:48:37.331Z,675
2022-08-03T04:49:53.560Z,679
2022-08-03T04:51:09.806Z,689
2022-08-03T04:52:26.039Z,700
2022-08-03T04:53:42.290Z,708
2022-08-03T04:54:58.529Z,721
2022-08-03T04:56:14.766Z,733
2022-08-03T04:57:30.993Z,740
2022-08-03T04:58:46.260Z,752
2022-08-03T05:00:02.500Z,765
2022-08-03T05:01:18.725Z,774
2022-08-03T05:02:34.961Z,788
2022-08-03T05:03:51.215Z,799
2022-08-03T05:05:07.451Z,815
2022-08-03T05:06:23.693Z,823
2022-08-03T05:07:39.916Z,836
2022-08-03T05:08:56.166Z,850
2022-08-03T05:10:12.400Z,859
2022-08-03T05:11:28.649Z,869
2022-08-03T05:12:44.868Z,885
2022-08-03T05:14:01.126Z,897
2022-08-03T05:15:16.381Z,907
2022-08-03T05:16:32.619Z,918
2022-08-03T05:17:48.848Z,928
2022-08-03T05:19:05.090Z,939
2022-08-03T05:20:21.331Z,946
2022-08-03T05:21:37.574Z,956
2022-08-03T05:22:53.798Z,965
2022-08-03T05:24:10.032Z,975
2022-08-03T05:25:26.289Z,981
2022-08-03T05:26:42.522Z,994
2022-08-03T05:27:58.756Z,1002
2022-08-03T05:29:15.004Z,1009
2022-08-03T05:30:31.230Z,1021
2022-08-03T05:31:46.481Z,1031
2022-08-03T05:33:02.722Z,1055
2022-08-03T05:34:18.969Z,1070
2022-08-03T05:35:35.202Z,1063
2022-08-03T05:36:51.441Z,1075
2022-08-03T05:38:07.674Z,1082
2022-08-03T05:39:23.926Z,1090
2022-08-03T05:40:40.166Z,1099
2022-08-03T05:41:56.389Z,1105
2022-08-03T05:43:12.637Z,1110
2022-08-03T05:44:28.865Z,1116
2022-08-03T05:45:45.112Z,1121
2022-08-03T05:47:01.339Z,1121
2022-08-03T05:48:16.600Z,1109
2022-08-03T05:49:32.846Z,1126
2022-08-03T05:50:49.072Z,1156
2022-08-03T05:52:05.328Z,1166
2022-08-03T05:53:21.551Z,1164
2022-08-03T05:54:37.800Z,1175
2022-08-03T05:55:54.040Z,1190
2022-08-03T05:57:10.264Z,1200
2022-08-03T05:58:26.503Z,1210
2022-08-03T05:59:42.749Z,1219
2022-08-03T06:00:58.987Z,1222
2022-08-03T06:02:15.225Z,1231
2022-08-03T06:03:31.470Z,1240
2022-08-03T06:04:46.712Z,1241
2022-08-03T06:06:02.964Z,1243
2022-08-03T06:07:19.195Z,1248
2022-08-03T06:08:35.432Z,1254
2022-08-03T06:09:51.671Z,1264
2022-08-03T06:11:07.906Z,1267
2022-08-03T06:12:24.142Z,1273
2022-08-03T06:13:40.397Z,1282
2022-08-03T06:14:56.624Z,1287
2022-08-03T06:16:12.857Z,1294
2022-08-03T06:17:29.108Z,1297
2022-08-03T06:18:45.355Z,1306
2022-08-03T06:20:01.574Z,1315
2022-08-03T06:21:16.833Z,1337
2022-08-03T06:22:33.077Z,1295
2022-08-03T06:23:49.318Z,1313
2022-08-03T06:25:05.550Z,1294
2022-08-03T06:26:21.795Z,1329
2022-08-03T06:27:38.039Z,1332
2022-08-03T06:28:53.296Z,1345
2022-08-03T06:30:09.531Z,1339
2022-08-03T06:31:25.767Z,1348
2022-08-03T06:32:42.005Z,1427
2022-08-03T06:33:58.235Z,1420
2022-08-03T06:35:14.489Z,1212
2022-08-03T06:36:30.715Z,1320
2022-08-03T06:37:46.969Z,1365
2022-08-03T06:39:03.208Z,1384
2022-08-03T06:40:19.437Z,1391
2022-08-03T06:41:35.670Z,1404
2022-08-03T06:42:51.911Z,1406
2022-08-03T06:44:08.150Z,1417
2022-08-03T06:45:23.414Z,1408
2022-08-03T06:46:39.647Z,1412
2022-08-03T06:47:55.888Z,1417
2022-08-03T06:49:12.116Z,1428
2022-08-03T06:50:28.362Z,1430
2022-08-03T06:51:44.591Z,1441
2022-08-03T06:53:00.842Z,1443
2022-08-03T06:54:17.067Z,1446
2022-08-03T06:55:33.320Z,1452
2022-08-03T06:56:49.560Z,1466
2022-08-03T06:58:05.797Z,1468
2022-08-03T06:59:22.037Z,1475
2022-08-03T07:00:38.277Z,1484
2022-08-03T07:01:53.524Z,1488
2022-08-03T07:03:09.763Z,1488
2022-08-03T07:04:25.994Z,1507
2022-08-03T07:05:42.242Z,1509
2022-08-03T07:06:58.466Z,1525
2022-08-03T07:08:14.719Z,1536
2022-08-03T07:09:30.951Z,1567
2022-08-03T07:10:47.185Z,1558
2022-08-03T07:12:03.431Z,1501
2022-08-03T07:13:19.670Z,1666
2022-08-03T07:14:35.905Z,1509
2022-08-03T07:15:52.152Z,1559
2022-08-03T07:17:08.377Z,1456
2022-08-03T07:18:23.643Z,1581
2022-08-03T07:19:39.876Z,1597
2022-08-03T07:20:56.111Z,1591
2022-08-03T07:22:12.344Z,1597
2022-08-03T07:23:28.584Z,1635
2022-08-03T07:24:44.841Z,1633
2022-08-03T07:26:01.077Z,1633
2022-08-03T07:27:17.313Z,1646
2022-08-03T07:28:33.548Z,1651
2022-08-03T07:29:49.794Z,1666
2022-08-03T07:31:06.024Z,1669
2022-08-03T07:32:22.256Z,1680
2022-08-03T07:33:38.000Z,1682
2022-08-03T07:34:53.758Z,1694
2022-08-03T07:36:09.991Z,1692
2022-08-03T07:37:26.237Z,1706
2022-08-03T07:38:42.472Z,1706
2022-08-03T07:39:58.702Z,1729
2022-08-03T07:41:14.957Z,1728
2022-08-03T07:42:31.189Z,1676
2022-08-03T07:43:47.427Z,1734
2022-08-03T07:45:03.662Z,1740
2022-08-03T07:46:19.895Z,1753
2022-08-03T07:47:36.140Z,1758
2022-08-03T07:48:52.379Z,1763
2022-08-03T07:50:08.616Z,1778
2022-08-03T07:51:23.871Z,1774
2022-08-03T07:52:40.111Z,1785
2022-08-03T07:53:56.353Z,1796
2022-08-03T07:55:12.588Z,1804
2022-08-03T07:56:28.830Z,1798
2022-08-03T07:57:45.060Z,1804
2022-08-03T07:59:01.311Z,1816
2022-08-03T08:00:17.545Z,1813
2022-08-03T08:01:33.781Z,1824
2022-08-03T08:02:50.014Z,1832
2022-08-03T08:04:06.268Z,1844
2022-08-03T08:05:22.491Z,1852
2022-08-03T08:06:38.735Z,1856
2022-08-03T08:07:53.995Z,1872
2022-08-03T08:09:10.226Z,1872
2022-08-03T08:10:26.472Z,1860
2022-08-03T08:11:42.707Z,1889
2022-08-03T08:12:58.952Z,1896
2022-08-03T08:14:15.175Z,1888
2022-08-03T08:15:31.419Z,1907
2022-08-03T08:16:47.653Z,1893
2022-08-03T08:18:03.892Z,1814
2022-08-03T08:19:20.128Z,1918
2022-08-03T08:21:52.614Z,2043
2022-08-03T08:23:08.845Z,2097
2022-08-03T08:24:24.101Z,2095
2022-08-03T08:25:40.339Z,2170
2022-08-03T08:26:56.579Z,2215
2022-08-03T08:28:12.817Z,2002
2022-08-03T08:29:29.060Z,2169
2022-08-03T08:30:45.310Z,2038
2022-08-03T08:32:01.543Z,2085
2022-08-03T08:33:17.771Z,2003
2022-08-03T08:34:34.014Z,2050
2022-08-03T08:35:50.270Z,2071
2022-08-03T08:37:06.497Z,2144
2022-08-03T08:38:22.740Z,2212
2022-08-03T08:39:38.970Z,2239
2022-08-03T08:40:54.236Z,2245
2022-08-03T08:42:10.469Z,2267
2022-08-03T08:43:26.703Z,2280
2022-08-03T08:44:42.939Z,2283
2022-08-03T08:45:59.184Z,2308
2022-08-03T08:47:15.429Z,2356
2022-08-03T08:48:31.668Z,2388
2022-08-03T08:49:47.903Z,2296
2022-08-03T08:51:04.130Z,2364
2022-08-03T08:52:20.379Z,2365
2022-08-03T08:53:36.611Z,2389
2022-08-03T08:54:52.860Z,2452
2022-08-03T08:56:09.100Z,2430
2022-08-03T08:57:24.349Z,2414
2022-08-03T08:58:40.580Z,2505
2022-08-03T08:59:56.823Z,2483
2022-08-03T09:01:13.070Z,2652
2022-08-03T09:02:29.315Z,2194
2022-08-03T09:03:45.536Z,2599
2022-08-03T09:05:01.783Z,2490
2022-08-03T09:06:18.029Z,2284
2022-08-03T09:07:34.256Z,2542
2022-08-03T09:08:50.503Z,3007
2022-08-03T09:10:06.729Z,1761
2022-08-03T09:11:22.982Z,2582
2022-08-03T09:12:39.219Z,2619
2022-08-03T09:13:54.477Z,2662
2022-08-03T09:15:10.716Z,2676
2022-08-03T09:16:26.943Z,2710
2022-08-03T09:17:43.185Z,2714
2022-08-03T09:18:59.422Z,2728
2022-08-03T09:20:15.676Z,2765
2022-08-03T09:21:31.909Z,2782
2022-08-03T09:22:48.149Z,2822
2022-08-03T09:24:04.391Z,2885
2022-08-03T09:25:20.615Z,2955
2022-08-03T09:26:36.848Z,2934
2022-08-03T09:27:53.089Z,3118
2022-08-03T09:29:09.345Z,2918
2022-08-03T09:30:24.582Z,3069
2022-08-03T09:31:40.836Z,3188
2022-08-03T09:32:57.075Z,3321
2022-08-03T09:34:13.302Z,3059
2022-08-03T09:35:29.549Z,3168
2022-08-03T09:36:45.781Z,3691
2022-08-03T09:38:02.022Z,2768
2022-08-03T09:39:18.256Z,3284
2022-08-03T09:40:34.497Z,3369
2022-08-03T09:41:50.731Z,3428
2022-08-03T09:44:23.224Z,3392
2022-08-03T09:45:39.458Z,3440
2022-08-03T09:46:54.719Z,3429
2022-08-03T09:48:10.945Z,3513
2022-08-03T09:49:27.183Z,3555
2022-08-03T09:50:43.424Z,3749
2022-08-03T09:51:59.662Z,3712
2022-08-03T09:53:15.907Z,3527
2022-08-03T09:54:32.151Z,3503
2022-08-03T09:55:48.376Z,3958
2022-08-03T09:57:04.619Z,4058
2022-08-03T09:58:20.858Z,4165
2022-08-03T09:59:37.093Z,4190
2022-08-03T10:00:53.349Z,4284
2022-08-03T10:02:09.586Z,4259
2022-08-03T10:03:24.831Z,4313
2022-08-03T10:04:41.077Z,3989
2022-08-03T10:05:57.316Z,4406
2022-08-03T10:07:13.545Z,5309
2022-08-03T10:08:29.799Z,6109
2022-08-03T10:09:46.039Z,7443
2022-08-03T10:11:02.260Z,7340
2022-08-03T10:12:18.518Z,7308
2022-08-03T10:13:34.748Z,7608
2022-08-03T10:14:50.979Z,7338
2022-08-03T10:16:07.228Z,6321
2022-08-03T10:17:23.458Z,5656
2022-08-03T10:18:39.715Z,5355
2022-08-03T10:19:54.962Z,5584
2022-08-03T10:21:11.202Z,5440
2022-08-03T10:22:27.440Z,5364
2022-08-03T10:23:43.684Z,5338
2022-08-03T10:24:59.925Z,5393
2022-08-03T10:26:16.151Z,5534
2022-08-03T10:27:32.407Z,5636
2022-08-03T10:28:48.640Z,5652
2022-08-03T10:30:04.881Z,5637
2022-08-03T10:31:21.109Z,6029
2022-08-03T10:32:37.347Z,5277
2022-08-03T10:33:53.584Z,5705
2022-08-03T10:35:09.838Z,5825
2022-08-03T10:36:25.094Z,5830
2022-08-03T10:37:41.321Z,6094
2022-08-03T10:38:57.560Z,5914
2022-08-03T10:40:13.801Z,2568
2022-08-03T10:41:30.044Z,6972
2022-08-03T10:42:46.293Z,13316
2022-08-03T10:44:01.555Z,17807
2022-08-03T10:45:17.792Z,14292
2022-08-03T10:46:34.030Z,7332
2022-08-03T10:47:50.261Z,8112
2022-08-03T10:49:06.506Z,15743
2022-08-03T10:50:22.742Z,14769
2022-08-03T10:51:38.981Z,9886
2022-08-03T10:52:55.225Z,13661
2022-08-03T10:54:11.464Z,15795
2022-08-03T10:55:27.706Z,22063
2022-08-03T10:56:43.950Z,16105
2022-08-03T10:58:00.186Z,3976
2022-08-03T10:59:16.423Z,15648
2022-08-03T11:00:31.671Z,30057
2022-08-03T11:01:47.920Z,29864
2022-08-03T11:03:04.144Z,30272
2022-08-03T11:04:20.387Z,28593
2022-08-03T11:05:36.643Z,20273
2022-08-03T11:06:52.863Z,22033
2022-08-03T11:08:09.109Z,14628
2022-08-03T11:09:25.357Z,8506
2022-08-03T11:10:41.583Z,12943
2022-08-03T11:11:57.824Z,13304
2022-08-03T11:13:14.064Z,12572
2022-08-03T11:14:30.314Z,14398
2022-08-03T11:15:46.542Z,13662
2022-08-03T11:17:01.799Z,14508
2022-08-03T11:18:18.041Z,13223
2022-08-03T11:20:50.529Z,9475
2022-08-03T11:22:06.767Z,12321
2022-08-03T11:23:23.006Z,13026
2022-08-03T11:24:39.250Z,16153
2022-08-03T11:25:55.482Z,17779
2022-08-03T11:27:11.718Z,17661
2022-08-03T11:28:27.951Z,25092
2022-08-03T11:29:44.193Z,17815
2022-08-03T11:31:00.450Z,5738
2022-08-03T11:32:16.687Z,11247
2022-08-03T11:33:31.939Z,21593
2022-08-03T11:34:48.180Z,16878
2022-08-03T11:37:20.647Z,20548
2022-08-03T11:38:36.892Z,16524
2022-08-03T11:39:53.144Z,25900
2022-08-03T11:41:09.366Z,17956
2022-08-03T11:42:25.618Z,8555
2022-08-03T11:43:41.862Z,6387
2022-08-03T11:44:58.094Z,23255
2022-08-03T11:46:14.325Z,29748
2022-08-03T11:47:30.572Z,27167
2022-08-03T11:48:46.810Z,23982
2022-08-03T11:50:02.070Z,17726
2022-08-03T11:51:18.313Z,34874
2022-08-03T11:52:34.537Z,22836
2022-08-03T11:53:50.786Z,8091
2022-08-03T11:55:07.033Z,9285
2022-08-03T11:56:23.276Z,26587
2022-08-03T11:57:39.514Z,25689
2022-08-03T11:58:55.742Z,25697
2022-08-03T12:00:11.984Z,19835
2022-08-03T12:01:28.230Z,18289
2022-08-03T12:02:44.457Z,17909
2022-08-03T12:04:00.699Z,14980
2022-08-03T12:05:16.941Z,12226
2022-08-03T12:06:32.197Z,11104
2022-08-03T12:07:48.436Z,13880
2022-08-03T12:09:04.680Z,15498
2022-08-03T12:10:20.913Z,16916
2022-08-03T12:11:37.151Z,16027
2022-08-03T12:12:53.403Z,17617
2022-08-03T12:14:09.647Z,15823
2022-08-03T12:15:25.877Z,21681
2022-08-03T12:16:42.123Z,15115
2022-08-03T12:17:58.368Z,12330
2022-08-03T12:19:14.595Z,10646
2022-08-03T12:20:30.850Z,15169
2022-08-03T12:21:47.075Z,12880
2022-08-03T12:23:02.332Z,14582
2022-08-03T12:24:18.573Z,15485
2022-08-03T12:25:34.815Z,19731
2022-08-03T12:26:51.044Z,20230
2022-08-03T12:28:07.299Z,15844
2022-08-03T12:29:23.543Z,9913
2022-08-03T12:30:39.783Z,14494
2022-08-03T12:31:56.016Z,20125
2022-08-03T12:33:12.244Z,15101
2022-08-03T12:34:28.487Z,17625
2022-08-03T12:35:44.742Z,17537
2022-08-03T12:37:00.979Z,18714
2022-08-03T12:38:17.203Z,20962
2022-08-03T12:39:32.481Z,17236
2022-08-03T12:40:48.710Z,6364
2022-08-03T12:42:04.954Z,19734
2022-08-03T12:43:21.189Z,26669
2022-08-03T12:44:37.418Z,16220
2022-08-03T12:45:53.672Z,17201
2022-08-03T12:47:09.897Z,23630
2022-08-03T12:48:26.148Z,31866
2022-08-03T12:49:42.389Z,22292
2022-08-03T12:50:58.626Z,4927
2022-08-03T12:52:14.873Z,16176
2022-08-03T12:53:31.105Z,35765
2022-08-03T12:54:47.343Z,23583
2022-08-03T12:56:02.596Z,28344
2022-08-03T12:57:18.832Z,26024
2022-08-03T12:58:35.084Z,29513
2022-08-03T12:59:51.321Z,33298
2022-08-03T13:01:07.568Z,21471
2022-08-03T13:02:23.798Z,4850
2022-08-03T13:03:40.041Z,19007
2022-08-03T13:04:56.282Z,25800
2022-08-03T13:06:12.524Z,27126
2022-08-03T13:07:28.752Z,22772
2022-08-03T13:08:44.999Z,21697
2022-08-03T13:10:01.247Z,30074
2022-08-03T13:11:17.485Z,24458
2022-08-03T13:12:32.732Z,14806
2022-08-03T13:13:48.978Z,7203
2022-08-03T13:15:05.214Z,26438
2022-08-03T13:16:21.444Z,24866
2022-08-03T13:17:37.696Z,27825
2022-08-03T13:18:53.933Z,19705
2022-08-03T13:20:10.172Z,24874
2022-08-03T13:21:26.408Z,17041
2022-08-03T13:22:42.652Z,9151
2022-08-03T13:23:58.893Z,17157
2022-08-03T13:25:15.129Z,18820
2022-08-03T13:26:31.367Z,20143
2022-08-03T13:27:47.613Z,18538
2022-08-03T13:29:02.867Z,20483
2022-08-03T13:31:35.354Z,16605
2022-08-03T13:32:51.593Z,11778
2022-08-03T13:34:07.821Z,11752
2022-08-03T13:35:24.061Z,15592
2022-08-03T13:36:40.301Z,15716
2022-08-03T13:37:56.554Z,13949
2022-08-03T13:39:12.781Z,13793
2022-08-03T13:40:29.016Z,19871
2022-08-03T13:41:45.272Z,18023
2022-08-03T13:43:01.504Z,13890
2022-08-03T13:44:17.743Z,9127
2022-08-03T13:45:33.002Z,24994
2022-08-03T13:48:05.486Z,23569
2022-08-03T13:49:21.711Z,22207
2022-08-03T13:50:37.963Z,27745
2022-08-03T13:51:54.201Z,21036
2022-08-03T13:53:10.435Z,4566
2022-08-03T13:54:26.687Z,25964
2022-08-03T13:55:42.922Z,17642
2022-08-03T13:56:59.151Z,6623
2022-08-03T13:58:15.396Z,4587
2022-08-03T13:59:31.635Z,4335
2022-08-03T14:00:47.884Z,4218
2022-08-03T14:02:03.131Z,4201
2022-08-03T14:03:19.377Z,3916
2022-08-03T14:04:35.614Z,6367
2022-08-03T14:05:51.859Z,3509
2022-08-03T14:07:08.094Z,23019
2022-08-03T14:08:24.323Z,31165
2022-08-03T14:09:40.578Z,27521
2022-08-03T14:10:56.802Z,17607
2022-08-03T14:12:13.058Z,6938
2022-08-03T14:13:29.278Z,15004
2022-08-03T14:14:45.529Z,15755
2022-08-03T14:16:01.774Z,17607
2022-08-03T14:17:18.001Z,12583
2022-08-03T14:18:33.255Z,15862
2022-08-03T14:19:49.507Z,14334
2022-08-03T14:21:05.748Z,13349
2022-08-03T14:23:38.229Z,11109
2022-08-03T14:24:54.458Z,18050
2022-08-03T14:26:10.704Z,19065
2022-08-03T14:27:26.948Z,32240
2022-08-03T14:28:43.184Z,23291
2022-08-03T14:29:59.416Z,14281
2022-08-03T14:31:15.655Z,8770
2022-08-03T14:32:31.892Z,25159
2022-08-03T14:33:48.131Z,32023
2022-08-03T14:35:03.401Z,25931
2022-08-03T14:36:19.634Z,33451
2022-08-03T14:37:35.862Z,25127
2022-08-03T14:38:52.111Z,9153
2022-08-03T14:40:08.357Z,16731
2022-08-03T14:41:24.583Z,24080
2022-08-03T14:42:40.830Z,28837
2022-08-03T14:43:57.072Z,26493
2022-08-03T14:45:13.310Z,24660
2022-08-03T14:46:29.557Z,16200
2022-08-03T14:47:45.780Z,9251
2022-08-03T14:49:02.032Z,19939
2022-08-03T14:50:18.273Z,16758
2022-08-03T14:51:33.517Z,13102
2022-08-03T14:52:49.760Z,13408
2022-08-03T14:54:05.994Z,16565
2022-08-03T14:55:22.231Z,14622
2022-08-03T14:56:38.488Z,9416
2022-08-03T14:57:54.729Z,12159
2022-08-03T14:59:09.988Z,21913
2022-08-03T15:00:26.226Z,10570
2022-08-03T15:01:42.470Z,3996
2022-08-03T15:02:58.709Z,3267
2022-08-03T15:04:14.946Z,2863
2022-08-03T15:05:31.173Z,2772
2022-08-03T15:06:47.414Z,2718
2022-08-03T15:08:03.648Z,2760
2022-08-03T15:09:19.891Z,2715
2022-08-03T15:10:36.135Z,2704
2022-08-03T15:11:52.368Z,2775
2022-08-03T15:13:08.622Z,2735
2022-08-03T15:14:24.866Z,2968
2022-08-03T15:15:40.120Z,2591
2022-08-03T15:16:56.354Z,2391
2022-08-03T15:18:12.579Z,2344
2022-08-03T15:19:28.825Z,2221
2022-08-03T15:20:45.076Z,2331
2022-08-03T15:22:01.304Z,2349
2022-08-03T15:23:17.541Z,2439
2022-08-03T15:24:33.780Z,2555
2022-08-03T15:25:50.022Z,2631
2022-08-03T15:27:06.265Z,2408
2022-08-03T15:28:22.496Z,2433
2022-08-03T15:29:38.734Z,2383
2022-08-03T15:30:54.978Z,2825
2022-08-03T15:32:10.178Z,2946
2022-08-03T15:33:26.419Z,2942
2022-08-03T15:34:42.658Z,2984
2022-08-03T15:35:58.914Z,3002
2022-08-03T15:37:15.139Z,2951
2022-08-03T15:38:31.395Z,3074
2022-08-03T15:39:47.631Z,2983
2022-08-03T15:41:03.864Z,2570
2022-08-03T15:42:20.093Z,2336
2022-08-03T15:43:36.350Z,2204
2022-08-03T15:44:52.583Z,2112
2022-08-03T15:46:08.826Z,2081
2022-08-03T15:47:25.064Z,2004
2022-08-03T15:48:40.320Z,1960
2022-08-03T15:51:12.782Z,2033
2022-08-03T15:52:29.041Z,1963
2022-08-03T15:53:45.268Z,1865
2022-08-03T15:55:01.513Z,1820
2022-08-03T15:56:17.757Z,2502
2022-08-03T15:57:33.983Z,1976
2022-08-03T15:58:50.231Z,2435
2022-08-03T16:00:06.457Z,2744
2022-08-03T16:01:22.707Z,2420
2022-08-03T16:02:38.937Z,2206
2022-08-03T16:03:55.189Z,2244
2022-08-03T16:05:10.438Z,2167
2022-08-03T16:06:26.673Z,2047
2022-08-03T16:07:42.921Z,1976
2022-08-03T16:08:59.163Z,2025
2022-08-03T16:10:15.389Z,1761
2022-08-03T16:11:31.625Z,1898
2022-08-03T16:12:47.870Z,2130
2022-08-03T16:14:04.115Z,2102
2022-08-03T16:15:20.346Z,2328
2022-08-03T16:16:36.587Z,2258
2022-08-03T16:17:52.828Z,2322
2022-08-03T16:19:09.079Z,2061
2022-08-03T16:20:25.316Z,1984
2022-08-03T16:21:40.558Z,1953
2022-08-03T16:22:56.799Z,1555
2022-08-03T16:24:13.034Z,2051
2022-08-03T16:25:29.277Z,2063
2022-08-03T16:26:45.514Z,2114
2022-08-03T16:28:01.766Z,2038
2022-08-03T16:29:18.002Z,2142
2022-08-03T16:30:34.227Z,2203
2022-08-03T16:31:50.473Z,2244
2022-08-03T16:33:06.720Z,2277
2022-08-03T16:34:22.952Z,2142
2022-08-03T16:35:39.191Z,2128
2022-08-03T16:36:55.427Z,2068
2022-08-03T16:38:10.679Z,2312
2022-08-03T16:39:26.918Z,2044
2022-08-03T16:40:43.156Z,1834
2022-08-03T16:41:59.407Z,1825
2022-08-03T16:43:15.642Z,1341
2022-08-03T16:44:31.892Z,1706
2022-08-03T16:45:48.121Z,1786
2022-08-03T16:47:04.364Z,1551
2022-08-03T16:48:20.595Z,1972
2022-08-03T16:49:36.830Z,1178
2022-08-03T16:50:53.075Z,1735
2022-08-03T16:52:09.306Z,1791
2022-08-03T16:53:25.563Z,1865
2022-08-03T16:54:40.814Z,1837
2022-08-03T16:55:57.057Z,1877
2022-08-03T16:57:13.295Z,1832
2022-08-03T16:58:29.526Z,1746
2022-08-03T16:59:45.773Z,1816
2022-08-03T17:01:02.004Z,1976
2022-08-03T17:02:18.250Z,1762
2022-08-03T17:03:34.480Z,1743
2022-08-03T17:04:50.718Z,1774
2022-08-03T17:06:06.966Z,1730
2022-08-03T17:07:23.200Z,1833
2022-08-03T17:08:39.426Z,1974
2022-08-03T17:09:55.676Z,1281
2022-08-03T17:11:10.929Z,1525
2022-08-03T17:12:27.167Z,1728
2022-08-03T17:13:43.397Z,1587
2022-08-03T17:14:59.637Z,1647
2022-08-03T17:16:15.882Z,1647
2022-08-03T17:17:32.131Z,1487
2022-08-03T17:18:48.370Z,1577
2022-08-03T17:20:04.595Z,1374
2022-08-03T17:21:20.850Z,1360
2022-08-03T17:22:37.078Z,1524
2022-08-03T17:23:53.320Z,1412